Nashville International Airport
KBNA : rendu visible

Aérodrome :











RETROUVEZ-NOUS SUR...

 
LOGIN :

S'inscrire | Disclaimer

   EN    FR    IT 

 









Légende :    VFR   VFR Marginal   IFR   IFR Intensif   IFR Très Intensif
Visi : 
Plafond : 
>= 8 km
>= 3000ft
5 à 8 km
1000 à 3000 ft
1500m à 5 km
500 à 1000 ft
800 à 1500m
200 à 500 ft
< 800m
< 200 ft
Symboles :   Orages  Brouillard  Fortes neiges  Fortes précipitations  Vent > 20 kt






- Altitude de l'aérodrome : 599 ft
- Code IATA : BNA


KBNA - Nashville International

DERNIER METAR :
  • 192253Z 05012KT 10SM BKN250 10/M06 A3038 RMK AO2 SLP290 T01001056

METARs EXPIRÉS :
  • 192153Z 03009KT 10SM BKN250 11/M05 A3039 RMK AO2 SLP291 T01111050
  • 192053Z 03013G19KT 10SM SCT250 12/M04 A3039 RMK AO2 SLP290 T01171044 56021

TAF KBNA
Valide du 19 à 18h jusqu'au 20 à 18h UTC


191720Z 1918/2018 03013KT P6SM FEW025 BKN250
FM200300 36006KT P6SM OVC100
FM201400 01014G20KT P6SM OVC100
FM201700 02014G20KT P6SM OVC050



MET'MAP, la Météo Aéronautique d'un coup d'oeil ! - Copyright ORBIFLY Décembre 2007 - Disclaimer

ORBIFLY MET'MAP TEAM :

Programmation & Développement : Alexandra Zaïnal
Sur une idée originale de : Baudouin d'Aumeries
Assistance à la programmation : Marc-Olivier Méhu
Soutien technique & logistique : Manuel Goepfert

Contact : metmap@orbifly.com




SOURCES & CREDITS :

   NOAA       Earth
Advisory